createdAt,value
2018-04-19T00:01:00.116Z,102596.90
2018-04-19T00:03:35.093Z,102585.38
2018-04-19T00:06:10.311Z,102595.03
2018-04-19T00:08:44.982Z,102589.91
2018-04-19T00:11:20.013Z,102588.81
2018-04-19T00:13:54.428Z,102590.94
2018-04-19T00:16:30.014Z,102588.16
2018-04-19T00:19:04.904Z,102581.64
2018-04-19T00:21:39.598Z,102574.83
2018-04-19T00:24:14.617Z,102576.97
2018-04-19T00:26:49.818Z,102579.14
2018-04-19T00:29:24.713Z,102572.92
2018-04-19T00:31:59.790Z,102573.51
2018-04-19T00:34:35.033Z,102567.94
2018-04-19T00:37:10.034Z,102561.41
2018-04-19T00:39:45.178Z,102569.17
2018-04-19T00:42:20.217Z,102565.22
2018-04-19T00:44:55.198Z,102564.77
2018-04-19T00:47:30.394Z,102568.32
2018-04-19T00:50:05.097Z,102564.98
2018-04-19T00:52:51.403Z,102560.58
2018-04-19T00:55:26.271Z,102551.13
2018-04-19T00:58:01.218Z,102552.71
2018-04-19T01:00:35.943Z,102551.50
2018-04-19T01:03:11.254Z,102550.39
2018-04-19T01:05:46.273Z,102543.56
2018-04-19T01:08:21.370Z,102547.56
2018-04-19T01:10:56.082Z,102548.40
2018-04-19T01:13:30.886Z,102548.82
2018-04-19T01:16:06.155Z,102553.65
2018-04-19T01:18:41.077Z,102551.13
2018-04-19T01:21:16.130Z,102550.97
2018-04-19T01:23:50.553Z,102544.05
2018-04-19T01:26:25.777Z,102534.85
2018-04-19T01:29:01.230Z,102542.00
2018-04-19T01:31:36.286Z,102532.36
2018-04-19T01:34:11.153Z,102533.05
2018-04-19T01:36:46.179Z,102528.77
2018-04-19T01:39:20.874Z,102524.09
2018-04-19T01:41:55.850Z,102536.59
2018-04-19T01:44:31.234Z,102536.01
2018-04-19T01:47:05.578Z,102530.52
2018-04-19T01:49:40.310Z,102535.38
2018-04-19T01:52:15.309Z,102535.84
2018-04-19T01:54:50.410Z,102542.20
2018-04-19T01:57:25.585Z,102535.20
2018-04-19T02:00:00.634Z,102526.78
2018-04-19T02:02:35.802Z,102532.89
2018-04-19T02:05:11.346Z,102527.77
2018-04-19T02:07:46.357Z,102532.58
2018-04-19T02:10:20.838Z,102534.28
2018-04-19T02:12:56.241Z,102525.77
2018-04-19T02:15:31.026Z,102523.11
2018-04-19T02:18:05.842Z,102523.73
2018-04-19T02:20:40.694Z,102519.78
2018-04-19T02:23:15.793Z,102513.02
2018-04-19T02:25:51.265Z,102513.38
2018-04-19T02:28:26.618Z,102510.92
2018-04-19T02:31:01.730Z,102504.16
2018-04-19T02:33:36.275Z,102502.97
2018-04-19T02:36:11.528Z,102493.48
2018-04-19T02:38:46.600Z,102501.98
2018-04-19T02:41:22.236Z,102501.70
2018-04-19T02:43:57.417Z,102493.53
2018-04-19T02:46:32.654Z,102496.69
2018-04-19T02:49:07.468Z,102493.03
2018-04-19T02:51:42.681Z,102490.95
2018-04-19T02:54:18.218Z,102493.48
2018-04-19T02:56:52.429Z,102490.55
2018-04-19T02:59:27.806Z,102491.05
2018-04-19T03:02:02.902Z,102490.48
2018-04-19T03:04:37.881Z,102493.94
2018-04-19T03:07:14.414Z,102491.58
2018-04-19T03:09:49.437Z,102488.80
2018-04-19T03:12:24.785Z,102490.38
2018-04-19T03:15:00.586Z,102483.95
2018-04-19T03:17:35.599Z,102485.86
2018-04-19T03:20:10.679Z,102477.41
2018-04-19T03:22:45.537Z,102484.05
2018-04-19T03:25:20.518Z,102481.75
2018-04-19T03:27:55.249Z,102482.98
2018-04-19T03:30:30.533Z,102476.68
2018-04-19T03:33:05.806Z,102474.98
2018-04-19T03:35:40.562Z,102468.13
2018-04-19T03:38:15.866Z,102479.72
2018-04-19T03:40:51.439Z,102477.46
2018-04-19T03:43:26.572Z,102481.58
2018-04-19T03:46:01.273Z,102487.97
2018-04-19T03:48:36.536Z,102487.52
2018-04-19T03:51:11.894Z,102486.27
2018-04-19T03:53:47.230Z,102488.09
2018-04-19T03:56:22.906Z,102490.85
2018-04-19T03:58:57.801Z,102493.22
2018-04-19T04:01:32.857Z,102488.25
2018-04-19T04:04:08.311Z,102483.85
2018-04-19T04:06:43.747Z,102490.34
2018-04-19T04:09:18.975Z,102487.75
2018-04-19T04:11:53.634Z,102480.40
2018-04-19T04:14:28.881Z,102468.21
2018-04-19T04:17:15.018Z,102479.84
2018-04-19T04:33:17.067Z,102475.62
2018-04-19T04:35:52.154Z,102483.83
2018-04-19T04:38:27.315Z,102483.06
2018-04-19T04:41:02.012Z,102488.28
2018-04-19T04:43:37.066Z,102489.61
2018-04-19T04:46:11.992Z,102500.27
2018-04-19T04:48:46.862Z,102490.41
2018-04-19T04:51:21.986Z,102488.41
2018-04-19T04:53:56.749Z,102494.11
2018-04-19T04:56:31.502Z,102490.19
2018-04-19T04:59:06.758Z,102486.91
2018-04-19T05:01:41.730Z,102495.97
2018-04-19T05:04:17.035Z,102495.27
2018-04-19T05:06:51.662Z,102496.81
2018-04-19T05:09:26.629Z,102493.83
2018-04-19T05:12:01.490Z,102494.09
2018-04-19T05:14:36.655Z,102499.97
2018-04-19T05:17:11.603Z,102495.36
2018-04-19T05:19:46.262Z,102498.39
2018-04-19T05:22:21.062Z,102494.72
2018-04-19T05:24:55.990Z,102495.17
2018-04-19T05:27:30.989Z,102501.81
2018-04-19T05:30:05.279Z,102502.88
2018-04-19T05:32:40.677Z,102509.31
2018-04-19T05:35:15.357Z,102500.16
2018-04-19T05:37:50.396Z,102510.56
2018-04-19T05:40:25.186Z,102513.03
2018-04-19T05:43:00.220Z,102511.27
2018-04-19T05:45:35.718Z,102505.59
2018-04-19T05:48:10.386Z,102510.77
2018-04-19T05:50:45.529Z,102510.23
2018-04-19T05:53:20.845Z,102512.39
2018-04-19T05:55:55.722Z,102507.25
2018-04-19T05:58:31.005Z,102509.41
2018-04-19T06:01:05.985Z,102507.84
2018-04-19T06:03:41.330Z,102513.03
2018-04-19T06:06:16.299Z,102507.34
2018-04-19T06:08:51.194Z,102505.83
2018-04-19T06:11:26.215Z,102510.22
2018-04-19T06:14:00.974Z,102511.96
2018-04-19T06:16:35.738Z,102502.91
2018-04-19T06:19:10.918Z,102508.60
2018-04-19T06:21:45.600Z,102506.36
2018-04-19T06:24:21.169Z,102499.60
2018-04-19T06:26:56.059Z,102499.28
2018-04-19T06:29:31.265Z,102496.70
2018-04-19T06:32:06.197Z,102495.98
2018-04-19T06:34:41.550Z,102495.22
2018-04-19T06:37:16.979Z,102487.64
2018-04-19T06:39:52.049Z,102495.61
2018-04-19T06:42:28.208Z,102505.22
2018-04-19T06:45:03.030Z,102503.30
2018-04-19T06:47:37.547Z,102494.80
2018-04-19T06:50:12.675Z,102501.20
2018-04-19T06:52:47.706Z,102496.38
2018-04-19T06:55:23.146Z,102496.34
2018-04-19T06:57:59.002Z,102490.69
2018-04-19T07:00:33.667Z,102503.52
2018-04-19T07:03:09.026Z,102497.30
2018-04-19T07:05:44.038Z,102497.07
2018-04-19T07:08:19.256Z,102500.47
2018-04-19T07:10:54.061Z,102497.95
2018-04-19T07:13:29.002Z,102500.27
2018-04-19T07:16:03.815Z,102499.64
2018-04-19T07:18:38.317Z,102487.48
2018-04-19T07:21:12.966Z,102492.38
2018-04-19T07:23:48.158Z,102496.12
2018-04-19T07:26:23.362Z,102493.56
2018-04-19T07:28:58.201Z,102486.99
2018-04-19T07:31:33.033Z,102492.62
2018-04-19T07:34:07.966Z,102485.00
2018-04-19T07:36:42.878Z,102495.70
2018-04-19T07:39:18.270Z,102483.00
2018-04-19T07:41:53.191Z,102490.01
2018-04-19T07:44:28.382Z,102484.58
2018-04-19T07:47:03.267Z,102485.05
2018-04-19T07:49:38.242Z,102486.59
2018-04-19T07:52:13.306Z,102485.70
2018-04-19T07:54:48.289Z,102482.91
2018-04-19T07:57:23.410Z,102483.19
2018-04-19T07:59:58.286Z,102472.49
2018-04-19T08:02:33.238Z,102477.95
2018-04-19T08:05:08.291Z,102483.06
2018-04-19T08:07:43.170Z,102476.14
2018-04-19T08:10:18.356Z,102475.94
2018-04-19T08:12:54.418Z,102481.55
2018-04-19T08:15:29.473Z,102489.39
2018-04-19T08:18:04.618Z,102483.87
2018-04-19T08:20:39.446Z,102481.80
2018-04-19T08:23:15.623Z,102477.09
2018-04-19T08:25:50.446Z,102480.26
2018-04-19T08:28:25.422Z,102482.39
2018-04-19T08:31:00.263Z,102480.45
2018-04-19T08:33:35.306Z,102478.14
2018-04-19T08:36:10.298Z,102485.41
2018-04-19T08:38:45.195Z,102484.97
2018-04-19T08:41:19.628Z,102480.09
2018-04-19T08:43:54.781Z,102479.25
2018-04-19T08:46:29.714Z,102477.50
2018-04-19T08:49:04.542Z,102480.13
2018-04-19T08:51:39.390Z,102477.31
2018-04-19T08:54:15.694Z,102484.52
2018-04-19T08:56:50.757Z,102475.57
2018-04-19T08:59:25.622Z,102480.12
2018-04-19T09:02:00.950Z,102482.21
2018-04-19T09:04:35.882Z,102484.13
2018-04-19T09:07:11.014Z,102481.42
2018-04-19T09:09:46.334Z,102479.52
2018-04-19T09:12:21.594Z,102477.34
2018-04-19T09:14:56.535Z,102480.77
2018-04-19T09:17:31.770Z,102474.46
2018-04-19T09:20:06.549Z,102470.79
2018-04-19T09:22:41.538Z,102484.86
2018-04-19T09:25:16.753Z,102475.28
2018-04-19T09:27:51.914Z,102478.39
2018-04-19T09:30:27.154Z,102475.84
2018-04-19T09:33:01.794Z,102477.50
2018-04-19T09:35:36.591Z,102481.56
2018-04-19T09:38:11.763Z,102484.56
2018-04-19T09:40:46.798Z,102470.93
2018-04-19T09:43:21.915Z,102482.07
2018-04-19T09:45:56.958Z,102474.52
2018-04-19T09:48:31.785Z,102470.23
2018-04-19T09:51:06.435Z,102472.87
2018-04-19T09:53:41.571Z,102473.69
2018-04-19T09:56:16.717Z,102470.95
2018-04-19T09:59:02.689Z,102475.94
2018-04-19T10:01:42.958Z,102468.62
2018-04-19T10:04:24.177Z,102464.30
2018-04-19T10:06:59.549Z,102466.91
2018-04-19T10:09:34.536Z,102469.91
2018-04-19T10:12:09.470Z,102459.38
2018-04-19T10:14:44.581Z,102461.72
2018-04-19T10:17:19.624Z,102456.63
2018-04-19T10:19:54.482Z,102449.84
2018-04-19T10:22:29.191Z,102454.65
2018-04-19T10:25:04.015Z,102452.54
2018-04-19T10:27:39.482Z,102448.98
2018-04-19T10:30:15.938Z,102442.76
2018-04-19T10:32:50.689Z,102441.45
2018-04-19T10:35:26.210Z,102443.09
2018-04-19T10:38:01.054Z,102443.61
2018-04-19T10:40:36.826Z,102436.55
2018-04-19T10:43:11.397Z,102430.64
2018-04-19T10:45:46.619Z,102432.48
2018-04-19T10:48:21.898Z,102434.36
2018-04-19T10:50:56.782Z,102432.17
2018-04-19T10:53:31.751Z,102430.20
2018-04-19T10:56:06.674Z,102421.19
2018-04-19T10:58:41.235Z,102423.42
2018-04-19T11:01:16.069Z,102420.41
2018-04-19T11:03:50.833Z,102420.02
2018-04-19T11:06:25.728Z,102418.18
2018-04-19T11:09:01.050Z,102422.29
2018-04-19T11:11:36.191Z,102418.03
2018-04-19T11:14:11.638Z,102417.93
2018-04-19T11:16:46.678Z,102414.62
2018-04-19T11:19:21.918Z,102416.35
2018-04-19T11:21:56.685Z,102414.30
2018-04-19T11:24:31.970Z,102413.05
2018-04-19T11:27:07.022Z,102408.44
2018-04-19T11:29:41.613Z,102406.20
2018-04-19T11:32:17.185Z,102400.02
2018-04-19T11:34:51.830Z,102396.34
2018-04-19T11:37:27.349Z,102393.77
2018-04-19T11:40:02.824Z,102397.33
2018-04-19T11:42:37.938Z,102390.22
2018-04-19T11:45:12.895Z,102389.48
2018-04-19T11:47:48.139Z,102385.72
2018-04-19T11:50:23.466Z,102390.66
2018-04-19T11:52:57.878Z,102382.86
2018-04-19T11:55:33.286Z,102384.70
2018-04-19T11:58:08.770Z,102378.33
2018-04-19T12:00:43.486Z,102379.84
2018-04-19T12:03:18.370Z,102377.62
2018-04-19T12:05:53.370Z,102383.59
2018-04-19T12:08:28.139Z,102371.71
2018-04-19T12:11:03.242Z,102374.17
2018-04-19T12:13:38.158Z,102370.64
2018-04-19T12:16:13.086Z,102367.08
2018-04-19T12:18:48.062Z,102375.11
2018-04-19T12:21:23.161Z,102369.69
2018-04-19T12:23:57.995Z,102363.42
2018-04-19T12:26:32.769Z,102360.28
2018-04-19T12:29:08.102Z,102358.64
2018-04-19T12:31:42.913Z,102358.34
2018-04-19T12:34:18.231Z,102354.03
2018-04-19T12:36:53.134Z,102353.66
2018-04-19T12:39:28.181Z,102355.48
2018-04-19T12:42:02.943Z,102344.84
2018-04-19T12:44:37.982Z,102350.33
2018-04-19T12:47:13.027Z,102341.37
2018-04-19T12:49:47.973Z,102344.69
2018-04-19T12:52:23.299Z,102336.89
2018-04-19T12:54:58.144Z,102336.69
2018-04-19T12:57:34.241Z,102337.52
2018-04-19T13:00:08.570Z,102338.91
2018-04-19T13:02:44.153Z,102330.59
2018-04-19T13:05:19.135Z,102324.58
2018-04-19T13:07:54.138Z,102333.56
2018-04-19T13:10:29.333Z,102332.80
2018-04-19T13:13:04.165Z,102326.27
2018-04-19T13:15:39.354Z,102325.64
2018-04-19T13:18:14.331Z,102321.87
2018-04-19T13:20:49.254Z,102313.57
2018-04-19T13:23:24.363Z,102310.08
2018-04-19T13:25:59.134Z,102307.67
2018-04-19T13:28:34.027Z,102312.48
2018-04-19T13:31:09.334Z,102309.85
2018-04-19T13:33:44.107Z,102305.53
2018-04-19T13:36:19.314Z,102298.57
2018-04-19T13:38:54.266Z,102297.47
2018-04-19T13:41:29.505Z,102289.69
2018-04-19T13:44:04.234Z,102289.61
2018-04-19T13:46:39.286Z,102287.88
2018-04-19T13:49:14.245Z,102276.87
2018-04-19T13:51:49.275Z,102280.59
2018-04-19T13:54:24.490Z,102272.84
2018-04-19T13:56:59.250Z,102269.55
2018-04-19T13:59:34.550Z,102270.39
2018-04-19T14:02:09.460Z,102260.39
2018-04-19T14:04:44.234Z,102264.30
2018-04-19T14:07:19.482Z,102259.32
2018-04-19T14:09:54.053Z,102263.31
2018-04-19T14:12:29.170Z,102263.77
2018-04-19T14:15:03.612Z,102254.84
2018-04-19T14:17:38.434Z,102255.36
2018-04-19T14:20:13.338Z,102242.11
2018-04-19T14:22:48.461Z,102246.83
2018-04-19T14:25:23.610Z,102245.84
2018-04-19T14:27:58.373Z,102243.06
2018-04-19T14:30:33.407Z,102248.96
2018-04-19T14:33:08.378Z,102241.84
2018-04-19T14:35:43.307Z,102240.13
2018-04-19T14:38:18.519Z,102242.88
2018-04-19T14:40:53.294Z,102242.21
2018-04-19T14:43:28.498Z,102239.00
2018-04-19T14:46:03.641Z,102234.16
2018-04-19T14:48:38.679Z,102227.22
2018-04-19T14:51:13.717Z,102230.69
2018-04-19T14:53:48.862Z,102232.33
2018-04-19T14:56:24.476Z,102228.94
2018-04-19T14:58:59.744Z,102221.33
2018-04-19T15:01:34.886Z,102219.91
2018-04-19T15:04:10.430Z,102223.86
2018-04-19T15:06:45.356Z,102210.83
2018-04-19T15:09:20.386Z,102214.41
2018-04-19T15:11:55.414Z,102214.32
2018-04-19T15:14:30.618Z,102220.91
2018-04-19T15:17:05.429Z,102219.51
2018-04-19T15:19:40.442Z,102213.94
2018-04-19T15:22:16.673Z,102216.72
2018-04-19T15:24:51.537Z,102213.77
2018-04-19T15:27:26.499Z,102213.53
2018-04-19T15:30:01.603Z,102212.92
2018-04-19T15:32:36.533Z,102209.30
2018-04-19T15:35:11.498Z,102211.41
2018-04-19T15:37:46.493Z,102207.74
2018-04-19T15:40:21.541Z,102205.15
2018-04-19T15:42:56.408Z,102194.91
2018-04-19T15:45:31.306Z,102201.27
2018-04-19T15:48:05.930Z,102194.61
2018-04-19T15:50:40.762Z,102191.61
2018-04-19T15:53:16.726Z,102190.78
2018-04-19T15:55:52.470Z,102184.66
2018-04-19T15:58:27.609Z,102195.31
2018-04-19T16:01:02.542Z,102190.70
2018-04-19T16:03:37.414Z,102186.84
2018-04-19T16:06:12.622Z,102189.76
2018-04-19T16:08:47.634Z,102191.92
2018-04-19T16:11:23.193Z,102184.18
2018-04-19T16:13:58.281Z,102188.11
2018-04-19T16:16:33.478Z,102182.84
2018-04-19T16:19:08.750Z,102187.66
2018-04-19T16:21:43.841Z,102179.50
2018-04-19T16:24:18.830Z,102178.78
2018-04-19T16:26:53.903Z,102172.09
2018-04-19T16:29:28.862Z,102172.09
2018-04-19T16:32:03.651Z,102182.49
2018-04-19T16:34:38.618Z,102167.22
2018-04-19T16:37:13.727Z,102165.20
2018-04-19T16:39:48.993Z,102172.36
2018-04-19T16:42:24.690Z,102169.22
2018-04-19T16:44:59.737Z,102171.55
2018-04-19T16:47:35.099Z,102164.30
2018-04-19T16:50:10.066Z,102163.68
2018-04-19T16:52:45.096Z,102164.23
2018-04-19T16:55:20.217Z,102162.98
2018-04-19T16:57:54.740Z,102162.37
2018-04-19T17:00:29.966Z,102159.18
2018-04-19T17:03:04.971Z,102153.84
2018-04-19T17:05:39.913Z,102152.77
2018-04-19T17:08:14.681Z,102153.53
2018-04-19T17:10:49.827Z,102150.89
2018-04-19T17:13:24.948Z,102151.30
2018-04-19T17:16:00.130Z,102154.29
2018-04-19T17:18:35.367Z,102154.15
2018-04-19T17:21:09.888Z,102146.02
2018-04-19T17:23:44.475Z,102155.60
2018-04-19T17:26:19.194Z,102152.06
2018-04-19T17:28:54.186Z,102149.70
2018-04-19T17:31:29.849Z,102150.73
2018-04-19T17:34:04.858Z,102152.94
2018-04-19T17:36:39.890Z,102143.89
2018-04-19T17:39:15.089Z,102146.48
2018-04-19T17:41:50.103Z,102142.06
2018-04-19T17:44:25.244Z,102144.28
2018-04-19T17:46:59.716Z,102138.64
2018-04-19T17:49:35.060Z,102135.08
2018-04-19T17:52:10.219Z,102137.73
2018-04-19T17:54:45.446Z,102138.17
2018-04-19T17:57:21.050Z,102130.53
2018-04-19T17:59:56.030Z,102142.88
2018-04-19T18:02:31.954Z,102139.97
2018-04-19T18:05:06.864Z,102135.83
2018-04-19T18:07:41.894Z,102134.11
2018-04-19T18:10:17.277Z,102136.11
2018-04-19T18:12:52.525Z,102137.17
2018-04-19T18:15:27.949Z,102131.43
2018-04-19T18:18:03.300Z,102127.93
2018-04-19T18:20:38.516Z,102137.61
2018-04-19T18:23:13.491Z,102134.66
2018-04-19T18:25:48.194Z,102131.22
2018-04-19T18:28:23.192Z,102137.78
2018-04-19T18:30:58.406Z,102132.28
2018-04-19T18:33:33.889Z,102127.27
2018-04-19T18:36:08.885Z,102120.39
2018-04-19T18:38:43.807Z,102119.08
2018-04-19T18:41:19.171Z,102121.16
2018-04-19T18:43:54.394Z,102122.53
2018-04-19T18:46:29.428Z,102128.34
2018-04-19T18:49:03.961Z,102128.87
2018-04-19T18:51:39.210Z,102126.03
2018-04-19T18:54:14.861Z,102127.85
2018-04-19T18:56:49.907Z,102125.60
2018-04-19T18:59:25.209Z,102125.48
2018-04-19T19:02:00.324Z,102129.94
2018-04-19T19:04:35.712Z,102133.62
2018-04-19T19:07:10.508Z,102130.48
2018-04-19T19:09:45.874Z,102138.72
2018-04-19T19:12:21.199Z,102140.72
2018-04-19T19:14:56.817Z,102146.22
2018-04-19T19:17:42.711Z,102145.95
2018-04-19T19:20:17.094Z,102152.03
2018-04-19T19:22:51.586Z,102143.03
2018-04-19T19:25:26.554Z,102146.92
2018-04-19T19:28:01.502Z,102145.67
2018-04-19T19:30:36.425Z,102142.20
2018-04-19T19:33:11.326Z,102151.72
2018-04-19T19:35:46.210Z,102148.42
2018-04-19T19:38:21.537Z,102150.08
2018-04-19T19:40:56.689Z,102152.31
2018-04-19T19:43:32.003Z,102151.50
2018-04-19T19:46:07.074Z,102153.34
2018-04-19T19:48:41.485Z,102147.70
2018-04-19T19:51:17.378Z,102146.80
2018-04-19T19:53:52.462Z,102147.51
2018-04-19T19:56:27.726Z,102148.33
2018-04-19T19:59:03.133Z,102142.02
2018-04-19T20:01:37.834Z,102144.20
2018-04-19T20:04:13.398Z,102144.75
2018-04-19T20:06:48.954Z,102139.28
2018-04-19T20:09:24.305Z,102137.43
2018-04-19T20:11:59.825Z,102139.14
2018-04-19T20:14:35.782Z,102139.98
2018-04-19T20:17:10.819Z,102135.27
2018-04-19T20:19:45.270Z,102136.66
2018-04-19T20:22:20.269Z,102133.98
2018-04-19T20:24:54.827Z,102135.92
2018-04-19T20:27:30.260Z,102134.86
2018-04-19T20:30:04.534Z,102129.59
2018-04-19T20:35:38.085Z,102130.85
2018-04-19T20:38:13.264Z,102117.73
2018-04-19T20:40:48.498Z,102113.42
2018-04-19T20:43:24.129Z,102112.95
2018-04-19T20:45:59.213Z,102112.42
2018-04-19T20:48:34.735Z,102114.44
2018-04-19T20:51:10.137Z,102107.33
2018-04-19T20:53:45.146Z,102111.53
2018-04-19T20:56:20.318Z,102110.95
2018-04-19T20:58:55.305Z,102117.02
2018-04-19T21:01:30.531Z,102111.77
2018-04-19T21:04:06.137Z,102109.48
2018-04-19T21:06:41.039Z,102113.73
2018-04-19T21:09:17.529Z,102114.70
2018-04-19T21:11:52.628Z,102105.81
2018-04-19T21:14:27.408Z,102099.20
2018-04-19T21:17:02.261Z,102105.22
2018-04-19T21:19:36.676Z,102103.28
2018-04-19T21:22:12.249Z,102105.78
2018-04-19T21:24:47.365Z,102098.00
2018-04-19T21:27:21.785Z,102098.47
2018-04-19T21:29:57.201Z,102096.11
2018-04-19T21:32:32.417Z,102097.16
2018-04-19T21:35:07.353Z,102100.44
2018-04-19T21:37:42.341Z,102099.36
2018-04-19T21:40:17.573Z,102094.34
2018-04-19T21:42:52.339Z,102090.59
2018-04-19T21:45:27.469Z,102091.89
2018-04-19T21:48:03.092Z,102083.70
2018-04-19T21:50:38.421Z,102092.75
2018-04-19T21:53:13.287Z,102083.55
2018-04-19T21:55:48.632Z,102088.20
2018-04-19T21:58:24.417Z,102080.16
2018-04-19T22:00:59.096Z,102088.93
2018-04-19T22:03:34.452Z,102080.14
2018-04-19T22:06:09.596Z,102080.66
2018-04-19T22:08:44.367Z,102079.84
2018-04-19T22:11:19.549Z,102078.56
2018-04-19T22:13:54.597Z,102075.09
2018-04-19T22:16:29.760Z,102080.92
2018-04-19T22:19:04.416Z,102083.66
2018-04-19T22:21:39.413Z,102075.54
2018-04-19T22:24:14.669Z,102074.67
2018-04-19T22:26:49.845Z,102076.40
2018-04-19T22:29:25.601Z,102076.26
2018-04-19T22:32:00.777Z,102078.11
2018-04-19T22:34:36.453Z,102074.94
2018-04-19T22:37:11.435Z,102077.03
2018-04-19T22:39:46.493Z,102083.42
2018-04-19T22:42:21.633Z,102076.89
2018-04-19T22:44:56.868Z,102067.19
2018-04-19T22:47:32.608Z,102071.12
2018-04-19T22:50:07.513Z,102068.59
2018-04-19T22:52:42.526Z,102076.75
2018-04-19T22:55:17.840Z,102065.91
2018-04-19T22:57:52.870Z,102063.59
2018-04-19T23:00:30.581Z,102062.05
2018-04-19T23:03:05.600Z,102066.37
2018-04-19T23:05:40.676Z,102061.32
2018-04-19T23:08:15.233Z,102055.76
2018-04-19T23:10:50.802Z,102053.59
2018-04-19T23:13:26.131Z,102053.81
2018-04-19T23:16:01.622Z,102046.33
2018-04-19T23:18:36.944Z,102045.48
2018-04-19T23:21:11.670Z,102041.91
2018-04-19T23:23:46.605Z,102040.88
2018-04-19T23:26:21.961Z,102033.54
2018-04-19T23:28:56.597Z,102043.53
2018-04-19T23:31:31.857Z,102033.47
2018-04-19T23:34:07.500Z,102031.59
2018-04-19T23:36:42.520Z,102031.52
2018-04-19T23:39:17.669Z,102034.69
2018-04-19T23:41:52.145Z,102044.30
2018-04-19T23:44:26.952Z,102030.19
2018-04-19T23:47:02.001Z,102037.04
2018-04-19T23:49:37.177Z,102029.63
2018-04-19T23:52:12.105Z,102032.93
2018-04-19T23:54:47.635Z,102032.80
2018-04-19T23:57:22.981Z,102023.43
2018-04-19T23:59:57.913Z,102035.42
